createdAt,value
2018-04-02T00:01:13.640Z,0.93
2018-04-02T00:03:39.447Z,0.89
2018-04-02T00:06:05.239Z,0.90
2018-04-02T00:08:31.022Z,0.94
2018-04-02T00:10:56.927Z,0.82
2018-04-02T00:13:22.729Z,0.88
2018-04-02T00:15:48.520Z,0.80
2018-04-02T00:18:14.313Z,0.87
2018-04-02T00:20:40.112Z,0.84
2018-04-02T00:23:05.883Z,0.79
2018-04-02T00:25:31.700Z,0.75
2018-04-02T00:27:57.496Z,0.76
2018-04-02T00:30:23.292Z,0.77
2018-04-02T00:32:49.376Z,0.73
2018-04-02T00:35:15.159Z,0.73
2018-04-02T00:37:40.964Z,0.66
2018-04-02T00:40:06.756Z,0.69
2018-04-02T00:42:32.548Z,0.67
2018-04-02T00:44:58.352Z,0.75
2018-04-02T00:47:24.176Z,0.72
2018-04-02T00:49:49.973Z,0.64
2018-04-02T00:52:15.763Z,0.72
2018-04-02T00:54:41.577Z,0.63
2018-04-02T00:57:07.364Z,0.66
2018-04-02T00:59:33.159Z,0.59
2018-04-02T01:01:58.968Z,0.63
2018-04-02T01:04:24.758Z,0.58
2018-04-02T01:06:50.544Z,0.59
2018-04-02T01:09:16.448Z,0.64
2018-04-02T01:11:42.256Z,0.55
2018-04-02T01:14:08.070Z,0.46
2018-04-02T01:16:33.882Z,0.35
2018-04-02T01:18:59.667Z,0.47
2018-04-02T01:21:25.464Z,0.45
2018-04-02T01:23:51.277Z,0.47
2018-04-02T01:26:17.095Z,0.52
2018-04-02T01:28:42.915Z,0.45
2018-04-02T01:31:09.082Z,0.41
2018-04-02T01:33:34.857Z,0.50
2018-04-02T01:36:00.641Z,0.48
2018-04-02T01:38:26.439Z,0.39
2018-04-02T01:40:52.371Z,0.28
2018-04-02T01:43:18.154Z,0.36
2018-04-02T01:45:43.936Z,0.26
2018-04-02T01:48:09.745Z,0.19
2018-04-02T01:50:35.532Z,0.20
2018-04-02T01:53:01.311Z,0.21
2018-04-02T01:55:27.087Z,0.29
2018-04-02T01:57:52.896Z,0.19
2018-04-02T02:00:18.715Z,0.18
2018-04-02T02:02:44.507Z,0.26
2018-04-02T02:05:10.285Z,0.26
2018-04-02T02:07:36.097Z,0.13
2018-04-02T02:10:01.910Z,0.15
2018-04-02T02:12:27.729Z,0.12
2018-04-02T02:14:53.520Z,0.10
2018-04-02T02:17:19.305Z,0.14
2018-04-02T02:19:45.128Z,0.15
2018-04-02T02:22:10.923Z,0.05
2018-04-02T02:24:36.699Z,0.03
2018-04-02T02:27:02.548Z,0.06
2018-04-02T02:29:28.331Z,-0.01
2018-04-02T02:31:54.119Z,-0.03
2018-04-02T02:34:19.894Z,0.03
2018-04-02T02:36:45.682Z,0.03
2018-04-02T02:39:11.495Z,0.02
2018-04-02T02:41:37.277Z,0.07
2018-04-02T02:44:03.073Z,-0.03
2018-04-02T02:46:29.086Z,0.00
2018-04-02T02:48:54.866Z,-0.07
2018-04-02T02:51:20.669Z,-0.02
2018-04-02T02:53:46.472Z,0.03
2018-04-02T02:56:12.270Z,0.10
2018-04-02T02:58:38.047Z,0.09
2018-04-02T03:01:03.824Z,-0.02
2018-04-02T03:03:29.650Z,-0.05
2018-04-02T03:05:55.452Z,-0.10
2018-04-02T03:08:21.263Z,-0.07
2018-04-02T03:10:47.063Z,0.09
2018-04-02T03:13:12.850Z,0.07
2018-04-02T03:18:11.176Z,0.08
2018-04-02T03:20:36.942Z,0.00
2018-04-02T03:23:02.791Z,0.00
2018-04-02T03:25:28.578Z,-0.03
2018-04-02T03:27:54.378Z,-0.09
2018-04-02T03:30:20.168Z,-0.16
2018-04-02T03:32:45.950Z,-0.11
2018-04-02T03:35:11.773Z,-0.09
2018-04-02T03:37:37.676Z,-0.19
2018-04-02T03:40:03.466Z,-0.11
2018-04-02T03:42:29.260Z,-0.18
2018-04-02T03:44:55.363Z,-0.23
2018-04-02T03:47:21.176Z,-0.22
2018-04-02T03:49:46.986Z,-0.16
2018-04-02T03:52:12.899Z,-0.16
2018-04-02T03:54:38.687Z,-0.08
2018-04-02T03:57:04.484Z,-0.07
2018-04-02T03:59:30.262Z,-0.14
2018-04-02T04:01:56.084Z,-0.16
2018-04-02T04:04:22.831Z,-0.11
2018-04-02T04:06:48.728Z,-0.07
2018-04-02T04:09:14.534Z,-0.13
2018-04-02T04:11:40.336Z,-0.08
2018-04-02T04:14:06.114Z,0.03
2018-04-02T04:16:32.700Z,0.07
2018-04-02T04:18:58.560Z,-0.05
2018-04-02T04:21:24.360Z,-0.17
2018-04-02T04:23:50.161Z,-0.22
2018-04-02T04:26:15.967Z,-0.26
2018-04-02T04:28:41.746Z,-0.29
2018-04-02T04:31:07.545Z,-0.25
2018-04-02T04:33:33.381Z,-0.28
2018-04-02T04:35:59.150Z,-0.40
2018-04-02T04:38:24.983Z,-0.37
2018-04-02T04:40:50.758Z,-0.40
2018-04-02T04:43:16.541Z,-0.55
2018-04-02T04:45:42.327Z,-0.49
2018-04-02T04:48:08.116Z,-0.46
2018-04-02T04:50:34.054Z,-0.46
2018-04-02T04:52:59.854Z,-0.49
2018-04-02T04:55:25.645Z,-0.44
2018-04-02T04:57:51.542Z,-0.44
2018-04-02T05:00:17.343Z,-0.41
2018-04-02T05:02:43.128Z,-0.36
2018-04-02T05:05:08.947Z,-0.29
2018-04-02T05:07:34.751Z,-0.29
2018-04-02T05:10:00.559Z,-0.36
2018-04-02T05:12:26.442Z,-0.38
2018-04-02T05:14:52.166Z,-0.33
2018-04-02T05:17:17.945Z,-0.37
2018-04-02T05:19:43.732Z,-0.34
2018-04-02T05:22:09.531Z,-0.30
2018-04-02T05:24:35.334Z,-0.27
2018-04-02T05:27:01.100Z,-0.28
2018-04-02T05:29:26.904Z,-0.23
2018-04-02T05:31:53.638Z,-0.18
2018-04-02T05:34:19.430Z,-0.19
2018-04-02T05:36:45.208Z,-0.09
2018-04-02T05:39:11.028Z,-0.03
2018-04-02T05:41:36.819Z,0.06
2018-04-02T05:44:02.598Z,0.16
2018-04-02T05:46:28.470Z,0.14
2018-04-02T05:48:54.274Z,0.16
2018-04-02T05:51:20.051Z,0.11
2018-04-02T05:53:45.842Z,0.25
2018-04-02T05:56:11.610Z,0.30
2018-04-02T05:58:37.614Z,0.50
2018-04-02T06:01:03.424Z,0.33
2018-04-02T06:03:36.184Z,0.35
2018-04-02T06:06:01.997Z,0.57
2018-04-02T06:08:27.784Z,0.65
2018-04-02T06:10:53.573Z,0.77
2018-04-02T06:13:19.692Z,0.82
2018-04-02T06:15:45.490Z,0.78
2018-04-02T06:18:11.273Z,0.80
2018-04-02T06:20:37.053Z,0.82
2018-04-02T06:23:02.862Z,0.87
2018-04-02T06:25:28.648Z,0.97
2018-04-02T06:27:54.447Z,0.90
2018-04-02T06:30:20.231Z,0.91
2018-04-02T06:32:46.007Z,0.99
2018-04-02T06:35:11.800Z,1.01
2018-04-02T06:37:37.620Z,1.04
2018-04-02T06:40:03.430Z,1.04
2018-04-02T06:42:29.227Z,1.23
2018-04-02T06:44:55.110Z,1.31
2018-04-02T06:47:20.890Z,1.38
2018-04-02T06:49:46.704Z,1.42
2018-04-02T06:52:12.498Z,1.46
2018-04-02T06:54:38.316Z,1.64
2018-04-02T06:57:04.108Z,1.66
2018-04-02T07:02:20.903Z,1.84
2018-04-02T07:04:46.688Z,1.84
2018-04-02T07:07:12.473Z,1.95
2018-04-02T07:09:38.261Z,2.11
2018-04-02T07:12:04.059Z,2.18
2018-04-02T07:14:29.848Z,2.39
2018-04-02T07:16:55.655Z,2.36
2018-04-02T07:19:21.440Z,2.49
2018-04-02T07:21:47.259Z,2.57
2018-04-02T07:24:13.073Z,2.68
2018-04-02T07:26:38.871Z,2.86
2018-04-02T07:29:05.004Z,2.77
2018-04-02T07:31:30.783Z,2.72
2018-04-02T07:33:56.571Z,2.79
2018-04-02T07:36:22.366Z,2.92
2018-04-02T07:38:48.151Z,2.86
2018-04-02T07:41:13.927Z,2.98
2018-04-02T07:43:40.068Z,3.03
2018-04-02T07:46:05.856Z,3.08
2018-04-02T07:48:31.644Z,3.07
2018-04-02T07:51:05.031Z,3.14
2018-04-02T07:53:30.845Z,3.24
2018-04-02T07:55:57.805Z,3.26
2018-04-02T07:58:23.955Z,3.35
2018-04-02T08:00:50.333Z,3.37
2018-04-02T08:03:16.715Z,3.61
2018-04-02T08:05:43.439Z,3.63
2018-04-02T08:08:09.241Z,3.64
2018-04-02T08:10:35.292Z,3.51
2018-04-02T08:13:01.116Z,3.54
2018-04-02T08:15:27.876Z,3.71
2018-04-02T08:17:54.290Z,3.84
2018-04-02T08:20:20.091Z,3.84
2018-04-02T08:22:47.519Z,3.88
2018-04-02T08:25:13.340Z,3.81
2018-04-02T08:27:39.249Z,3.86
2018-04-02T08:30:05.076Z,3.99
2018-04-02T08:32:30.941Z,3.98
2018-04-02T08:34:56.701Z,3.99
2018-04-02T08:37:22.494Z,3.98
2018-04-02T08:39:49.275Z,4.01
2018-04-02T08:42:15.092Z,4.15
2018-04-02T08:44:40.875Z,4.28
2018-04-02T08:47:06.663Z,4.21
2018-04-02T08:49:32.470Z,4.25
2018-04-02T08:51:58.285Z,4.48
2018-04-02T08:54:24.091Z,4.45
2018-04-02T08:56:49.908Z,4.38
2018-04-02T08:59:15.715Z,4.41
2018-04-02T09:01:41.518Z,4.53
2018-04-02T09:04:07.339Z,4.74
2018-04-02T09:06:33.146Z,4.93
2018-04-02T09:08:58.976Z,4.95
2018-04-02T09:11:24.816Z,5.22
2018-04-02T09:13:50.625Z,4.98
2018-04-02T09:16:16.427Z,5.00
2018-04-02T09:18:42.248Z,5.35
2018-04-02T09:21:08.059Z,5.24
2018-04-02T09:23:33.863Z,5.12
2018-04-02T09:25:59.676Z,4.95
2018-04-02T09:28:25.498Z,4.85
2018-04-02T09:30:51.336Z,5.11
2018-04-02T09:33:17.155Z,5.38
2018-04-02T09:35:42.939Z,5.30
2018-04-02T09:38:08.729Z,5.11
2018-04-02T09:40:34.518Z,5.46
2018-04-02T09:43:00.524Z,5.60
2018-04-02T09:45:26.307Z,5.64
2018-04-02T09:47:52.104Z,5.66
2018-04-02T09:50:17.899Z,5.62
2018-04-02T09:52:43.675Z,5.74
2018-04-02T09:55:09.473Z,5.85
2018-04-02T09:57:35.267Z,6.04
2018-04-02T10:00:01.141Z,6.20
2018-04-02T10:02:26.961Z,6.19
2018-04-02T10:04:54.870Z,6.10
2018-04-02T10:07:20.640Z,6.34
2018-04-02T10:09:46.456Z,6.21
2018-04-02T10:12:12.251Z,6.75
2018-04-02T10:14:38.080Z,7.08
2018-04-02T10:17:03.865Z,6.78
2018-04-02T10:19:29.652Z,6.92
2018-04-02T10:21:55.659Z,6.60
2018-04-02T10:24:21.459Z,6.56
2018-04-02T10:26:47.254Z,6.28
2018-04-02T10:29:13.209Z,6.10
2018-04-02T10:31:39.003Z,6.17
2018-04-02T10:34:04.803Z,6.59
2018-04-02T10:36:30.595Z,6.83
2018-04-02T10:38:56.386Z,6.93
2018-04-02T10:41:22.190Z,6.97
2018-04-02T10:43:47.991Z,6.95
2018-04-02T10:46:13.784Z,7.00
2018-04-02T10:48:39.606Z,6.83
2018-04-02T10:51:05.403Z,6.89
2018-04-02T10:53:31.222Z,6.99
2018-04-02T10:55:56.998Z,7.19
2018-04-02T10:58:22.782Z,7.18
2018-04-02T11:00:48.611Z,7.11
2018-04-02T11:03:14.383Z,7.24
2018-04-02T11:05:40.230Z,7.38
2018-04-02T11:08:06.305Z,7.41
2018-04-02T11:10:32.099Z,7.54
2018-04-02T11:12:57.876Z,7.60
2018-04-02T11:15:23.676Z,7.24
2018-04-02T11:17:49.452Z,7.41
2018-04-02T11:20:15.261Z,7.71
2018-04-02T11:22:41.058Z,7.46
2018-04-02T11:25:06.847Z,7.34
2018-04-02T11:27:32.951Z,7.48
2018-04-02T11:29:58.743Z,7.31
2018-04-02T11:32:24.550Z,7.35
2018-04-02T11:34:50.374Z,7.35
2018-04-02T11:37:16.164Z,7.75
2018-04-02T11:39:41.957Z,8.07
2018-04-02T11:42:07.775Z,7.90
2018-04-02T11:44:33.554Z,7.93
2018-04-02T11:46:59.346Z,7.79
2018-04-02T11:49:25.216Z,8.01
2018-04-02T11:51:51.012Z,7.96
2018-04-02T11:54:16.806Z,7.69
2018-04-02T11:56:42.599Z,7.92
2018-04-02T11:59:08.391Z,7.96
2018-04-02T12:01:34.338Z,7.86
2018-04-02T12:04:00.166Z,7.71
2018-04-02T12:06:25.980Z,7.61
2018-04-02T12:08:51.834Z,7.78
2018-04-02T12:11:17.611Z,7.57
2018-04-02T12:13:43.417Z,7.71
2018-04-02T12:16:09.845Z,8.02
2018-04-02T12:18:35.040Z,7.86
2018-04-02T12:21:00.890Z,7.88
2018-04-02T12:23:26.759Z,8.07
2018-04-02T12:25:52.551Z,7.86
2018-04-02T12:28:18.359Z,7.87
2018-04-02T12:30:44.254Z,8.28
2018-04-02T12:33:10.043Z,8.55
2018-04-02T12:35:35.832Z,8.64
2018-04-02T12:38:01.675Z,9.54
2018-04-02T12:40:27.467Z,9.97
2018-04-02T12:42:53.244Z,10.18
2018-04-02T12:45:19.054Z,9.68
2018-04-02T12:47:44.867Z,9.91
2018-04-02T12:50:10.660Z,10.01
2018-04-02T12:52:36.455Z,9.92
2018-04-02T12:55:02.286Z,10.46
2018-04-02T12:57:28.080Z,9.79
2018-04-02T12:59:53.892Z,10.20
2018-04-02T13:02:19.700Z,10.17
2018-04-02T13:04:45.515Z,9.80
2018-04-02T13:07:11.406Z,9.95
2018-04-02T13:09:37.223Z,10.05
2018-04-02T13:12:03.009Z,10.48
2018-04-02T13:14:28.796Z,10.95
2018-04-02T13:16:54.601Z,9.69
2018-04-02T13:19:20.438Z,10.17
2018-04-02T13:21:46.347Z,10.40
2018-04-02T13:24:12.162Z,10.98
2018-04-02T13:26:38.138Z,11.59
2018-04-02T13:29:03.955Z,10.90
2018-04-02T13:31:29.784Z,10.34
2018-04-02T13:33:55.596Z,10.64
2018-04-02T13:36:21.395Z,10.57
2018-04-02T13:38:47.189Z,10.84
2018-04-02T13:41:12.980Z,11.00
2018-04-02T13:43:38.767Z,10.60
2018-04-02T13:46:04.556Z,10.59
2018-04-02T13:48:30.352Z,10.56
2018-04-02T13:50:56.193Z,10.28
2018-04-02T13:53:22.263Z,10.22
2018-04-02T13:55:48.045Z,10.00
2018-04-02T13:58:13.823Z,10.13
2018-04-02T14:00:39.821Z,10.38
2018-04-02T14:03:05.616Z,10.32
2018-04-02T14:05:31.436Z,10.17
2018-04-02T14:07:57.578Z,10.32
2018-04-02T14:10:23.399Z,10.35
2018-04-02T14:12:49.216Z,10.38
2018-04-02T14:15:15.020Z,10.48
2018-04-02T14:17:40.812Z,10.53
2018-04-02T14:20:06.612Z,10.24
2018-04-02T14:25:05.020Z,10.80
2018-04-02T14:27:30.831Z,10.64
2018-04-02T14:29:56.638Z,10.56
2018-04-02T14:32:22.450Z,10.18
2018-04-02T14:34:48.271Z,10.52
2018-04-02T14:37:14.067Z,10.43
2018-04-02T14:39:39.858Z,10.92
2018-04-02T14:42:05.664Z,10.51
2018-04-02T14:44:31.506Z,10.64
2018-04-02T14:46:57.282Z,10.09
2018-04-02T14:49:23.098Z,10.15
2018-04-02T14:51:48.887Z,9.78
2018-04-02T14:54:14.688Z,9.88
2018-04-02T14:56:40.486Z,9.83
2018-04-02T14:59:06.325Z,9.63
2018-04-02T15:01:32.131Z,9.43
2018-04-02T15:03:57.915Z,9.48
2018-04-02T15:06:23.732Z,9.48
2018-04-02T15:08:49.544Z,9.49
2018-04-02T15:11:15.330Z,9.48
2018-04-02T15:13:41.215Z,9.54
2018-04-02T15:16:07.033Z,9.38
2018-04-02T15:18:32.832Z,9.29
2018-04-02T15:20:58.900Z,9.29
2018-04-02T15:23:24.694Z,9.34
2018-04-02T15:25:52.458Z,9.24
2018-04-02T15:28:18.256Z,9.29
2018-04-02T15:30:44.045Z,9.22
2018-04-02T15:33:09.859Z,9.29
2018-04-02T15:35:35.666Z,9.87
2018-04-02T15:38:01.560Z,9.67
2018-04-02T15:40:27.353Z,9.48
2018-04-02T15:42:53.141Z,9.37
2018-04-02T15:45:19.029Z,9.37
2018-04-02T15:47:44.823Z,9.29
2018-04-02T15:50:11.418Z,9.28
2018-04-02T15:52:37.218Z,9.22
2018-04-02T15:55:03.019Z,9.14
2018-04-02T15:57:28.811Z,9.21
2018-04-02T15:59:54.607Z,9.44
2018-04-02T16:02:20.431Z,9.42
2018-04-02T16:04:46.250Z,9.29
2018-04-02T16:07:12.074Z,9.24
2018-04-02T16:09:37.874Z,9.33
2018-04-02T16:12:03.690Z,9.19
2018-04-02T16:14:29.463Z,9.29
2018-04-02T16:48:22.228Z,9.16
2018-04-02T16:50:48.028Z,9.27
2018-04-02T16:53:13.822Z,9.03
2018-04-02T16:55:39.614Z,8.80
2018-04-02T16:58:05.458Z,8.74
2018-04-02T17:00:31.299Z,8.73
2018-04-02T17:02:57.104Z,8.66
2018-04-02T17:05:22.943Z,8.75
2018-04-02T17:07:48.762Z,9.20
2018-04-02T17:10:14.595Z,9.88
2018-04-02T17:12:40.399Z,10.36
2018-04-02T17:15:06.215Z,10.74
2018-04-02T17:17:32.060Z,10.55
2018-04-02T17:19:57.864Z,10.35
2018-04-02T17:22:23.671Z,9.44
2018-04-02T17:24:49.472Z,9.23
2018-04-02T17:27:15.278Z,9.03
2018-04-02T17:29:41.094Z,8.88
2018-04-02T17:32:06.883Z,8.76
2018-04-02T17:34:32.678Z,10.20
2018-04-02T17:36:58.480Z,9.33
2018-04-02T17:39:24.290Z,8.98
2018-04-02T17:41:50.400Z,8.77
2018-04-02T17:44:16.210Z,8.60
2018-04-02T17:46:42.002Z,9.36
2018-04-02T17:49:07.824Z,9.20
2018-04-02T17:51:33.667Z,8.97
2018-04-02T17:53:59.459Z,8.86
2018-04-02T17:56:25.291Z,11.21
2018-04-02T17:58:51.116Z,11.25
2018-04-02T18:01:16.930Z,10.27
2018-04-02T18:03:42.738Z,9.46
2018-04-02T18:06:08.527Z,8.95
2018-04-02T18:08:34.318Z,8.77
2018-04-02T18:11:00.167Z,8.33
2018-04-02T18:13:25.964Z,8.30
2018-04-02T18:15:51.932Z,8.36
2018-04-02T18:18:17.792Z,8.40
2018-04-02T18:20:44.602Z,8.34
2018-04-02T18:23:10.404Z,8.21
2018-04-02T18:25:36.220Z,8.13
2018-04-02T18:28:02.070Z,7.99
2018-04-02T18:30:27.845Z,8.12
2018-04-02T18:32:53.648Z,8.03
2018-04-02T18:35:19.450Z,7.98
2018-04-02T18:37:45.266Z,7.93
2018-04-02T18:40:11.242Z,7.96
2018-04-02T18:42:37.050Z,7.90
2018-04-02T18:45:02.950Z,7.80
2018-04-02T18:47:28.668Z,7.80
2018-04-02T18:49:54.475Z,7.66
2018-04-02T18:52:20.356Z,7.69
2018-04-02T18:54:46.168Z,7.84
2018-04-02T18:57:11.997Z,7.74
2018-04-02T18:59:37.845Z,7.75
2018-04-02T19:02:03.687Z,7.71
2018-04-02T19:04:29.508Z,7.74
2018-04-02T19:06:55.342Z,8.84
2018-04-02T19:09:21.149Z,9.29
2018-04-02T19:11:46.975Z,9.73
2018-04-02T19:14:12.845Z,9.07
2018-04-02T19:16:38.650Z,8.28
2018-04-02T19:19:04.447Z,7.95
2018-04-02T19:21:30.321Z,7.71
2018-04-02T19:23:56.133Z,7.65
2018-04-02T19:26:21.937Z,7.54
2018-04-02T19:28:47.771Z,7.46
2018-04-02T19:31:13.597Z,7.37
2018-04-02T19:33:39.483Z,7.31
2018-04-02T19:36:05.326Z,7.20
2018-04-02T19:38:31.171Z,7.23
2018-04-02T19:40:57.001Z,8.59
2018-04-02T19:43:23.459Z,7.74
2018-04-02T19:45:50.249Z,7.53
2018-04-02T19:48:16.441Z,7.34
2018-04-02T19:50:42.225Z,7.91
2018-04-02T19:53:08.043Z,7.62
2018-04-02T19:55:33.843Z,7.43
2018-04-02T19:58:00.180Z,7.44
2018-04-02T20:00:26.016Z,7.32
2018-04-02T20:02:51.803Z,7.23
2018-04-02T20:05:18.129Z,7.26
2018-04-02T20:07:43.941Z,7.33
2018-04-02T20:10:09.773Z,7.29
2018-04-02T20:12:36.432Z,7.33
2018-04-02T20:15:02.266Z,7.41
2018-04-02T20:17:28.111Z,7.45
2018-04-02T20:19:53.920Z,7.37
2018-04-02T20:22:19.782Z,7.36
2018-04-02T20:24:45.581Z,7.39
2018-04-02T20:27:11.580Z,7.31
2018-04-02T20:29:37.428Z,8.97
2018-04-02T20:32:03.243Z,8.52
2018-04-02T20:34:29.173Z,7.71
2018-04-02T20:36:54.980Z,7.71
2018-04-02T20:39:21.288Z,7.52
2018-04-02T20:41:47.093Z,7.49
2018-04-02T20:44:13.125Z,7.49
2018-04-02T20:46:39.102Z,7.56
2018-04-02T20:49:04.928Z,7.42
2018-04-02T20:51:30.737Z,7.51
2018-04-02T20:53:56.519Z,7.63
2018-04-02T20:56:22.378Z,7.57
2018-04-02T20:58:48.170Z,7.60
2018-04-02T21:01:14.019Z,7.80
2018-04-02T21:03:39.840Z,7.62
2018-04-02T21:06:05.632Z,7.63
2018-04-02T21:08:31.482Z,7.57
2018-04-02T21:10:57.311Z,7.58
2018-04-02T21:13:23.103Z,7.56
2018-04-02T21:15:48.915Z,7.66
2018-04-02T21:18:14.710Z,7.58
2018-04-02T21:20:40.548Z,7.57
2018-04-02T21:23:06.352Z,7.57
2018-04-02T21:25:32.167Z,9.09
2018-04-02T21:27:57.966Z,9.59
2018-04-02T21:30:23.761Z,8.91
2018-04-02T21:32:49.570Z,8.41
2018-04-02T21:35:16.153Z,7.96
2018-04-02T21:37:41.964Z,8.04
2018-04-02T21:40:07.788Z,7.81
2018-04-02T21:42:34.092Z,7.81
2018-04-02T21:44:59.886Z,7.86
2018-04-02T21:47:25.681Z,8.12
2018-04-02T21:49:51.511Z,7.86
2018-04-02T21:52:17.311Z,7.81
2018-04-02T21:54:43.093Z,7.88
2018-04-02T21:57:08.889Z,7.78
2018-04-02T21:59:34.682Z,7.78
2018-04-02T22:02:00.477Z,7.76
2018-04-02T22:04:26.551Z,8.08
2018-04-02T22:07:01.255Z,7.73
2018-04-02T22:09:27.049Z,7.47
2018-04-02T22:11:52.848Z,7.38
2018-04-02T22:14:18.640Z,7.46
2018-04-02T22:16:44.427Z,7.45
2018-04-02T22:19:10.418Z,7.39
2018-04-02T22:21:36.224Z,7.41
2018-04-02T22:24:02.022Z,7.40
2018-04-02T22:26:27.841Z,7.41
2018-04-02T22:28:53.648Z,7.36
2018-04-02T22:31:19.434Z,7.34
2018-04-02T22:33:45.235Z,7.31
2018-04-02T22:36:11.018Z,7.26
2018-04-02T22:38:36.822Z,7.19
2018-04-02T22:41:02.645Z,7.19
2018-04-02T22:43:28.988Z,7.25
2018-04-02T22:45:54.800Z,7.28
2018-04-02T22:48:20.635Z,7.26
2018-04-02T22:50:46.462Z,7.20
2018-04-02T22:53:12.270Z,7.28
2018-04-02T22:55:38.083Z,7.24
2018-04-02T22:58:03.992Z,7.28
2018-04-02T23:00:29.812Z,7.31
2018-04-02T23:02:55.639Z,7.35
2018-04-02T23:05:21.464Z,7.34
2018-04-02T23:07:47.258Z,7.41
2018-04-02T23:10:13.042Z,7.45
2018-04-02T23:12:38.856Z,7.32
2018-04-02T23:15:04.652Z,7.43
2018-04-02T23:17:30.442Z,7.35
2018-04-02T23:19:56.554Z,7.35
2018-04-02T23:22:34.669Z,7.37
2018-04-02T23:25:00.467Z,7.45
2018-04-02T23:27:26.262Z,7.41
2018-04-02T23:29:52.061Z,8.53
2018-04-02T23:32:18.228Z,9.63
2018-04-02T23:34:44.022Z,9.71
2018-04-02T23:37:09.816Z,8.62
2018-04-02T23:39:35.628Z,8.12
2018-04-02T23:42:01.553Z,7.76
2018-04-02T23:44:27.354Z,7.37
2018-04-02T23:46:53.140Z,7.38
2018-04-02T23:49:18.957Z,7.51
2018-04-02T23:51:44.753Z,7.41
2018-04-02T23:54:10.542Z,7.46
2018-04-02T23:56:36.543Z,7.30
2018-04-02T23:59:02.367Z,7.22
